Time;durP1;ratioP1;P1;durP2;ratioP2;P2;SDS_P1;SDS_P2;PMS_P1;PMS_P2;Temp;Humidity;BMP_temperature;BMP_pressure;BME280_temperature;BME280_humidity;BME280_pressure;Samples;Min_cycle;Max_cycle;Signal;HPM_P1;HPM_P2
2021/07/10 00:02:12;;;;;;;;;;;;;;;14.38;100.00;100846.53;5074708;28;20339;-73
2021/07/10 00:04:40;;;;;;;;;;;;;;;14.33;100.00;100837.06;5074650;28;19978;-72
2021/07/10 00:07:06;;;;;;;;;;;;;;;14.31;100.00;100829.00;5074085;28;20089;-72
2021/07/10 00:09:33;;;;;;;;;;;;;;;14.31;100.00;100836.31;5074598;28;20288;-72
2021/07/10 00:11:59;;;;;;;;;;;;;;;14.34;100.00;100834.16;5074314;28;20011;-74
2021/07/10 00:14:26;;;;;;;;;;;;;;;14.32;100.00;100829.84;5074484;28;19987;-71
2021/07/10 00:16:52;;;;;;;;;;;;;;;14.32;100.00;100830.72;5074214;28;19926;-74
2021/07/10 00:19:18;;;;;;;;;;;;;;;14.32;100.00;100832.59;5074894;28;19924;-74
2021/07/10 00:21:46;;;;;;;;;;;;;;;14.29;100.00;100838.34;5074544;28;19960;-73
2021/07/10 00:24:12;;;;;;;;;;;;;;;14.30;100.00;100845.53;5072672;28;19956;-72
2021/07/10 00:26:38;;;;;;;;;;;;;;;14.28;100.00;100839.34;5073851;28;20404;-73
2021/07/10 00:29:05;;;;;;;;;;;;;;;14.22;100.00;100844.38;5074035;28;19929;-73
2021/07/10 00:31:31;;;;;;;;;;;;;;;14.22;100.00;100843.53;5073981;28;19970;-74
2021/07/10 00:33:57;;;;;;;;;;;;;;;14.20;100.00;100851.88;5073230;28;20363;-73
2021/07/10 00:36:23;;;;;;;;;;;;;;;14.17;100.00;100846.69;5074982;28;20011;-73
2021/07/10 00:38:53;;;;;;;;;;;;;;;14.18;100.00;100851.16;5073933;28;19975;-73
2021/07/10 00:41:19;;;;;;;;;;;;;;;14.18;100.00;100862.06;5073665;28;20534;-74
2021/07/10 00:43:47;;;;;;;;;;;;;;;14.19;100.00;100852.88;5074056;28;19928;-74
2021/07/10 00:46:16;;;;;;;;;;;;;;;14.22;100.00;100859.91;5073724;28;20418;-74
2021/07/10 00:48:43;;;;;;;;;;;;;;;14.19;100.00;100863.78;5073686;28;20416;-73
2021/07/10 00:51:09;;;;;;;;;;;;;;;14.20;100.00;100860.06;5073501;28;19960;-74
2021/07/10 00:53:35;;;;;;;;;;;;;;;14.19;100.00;100863.78;5073700;28;19947;-75
2021/07/10 00:56:03;;;;;;;;;;;;;;;14.20;100.00;100861.91;5073672;28;19982;-75
2021/07/10 00:58:29;;;;;;;;;;;;;;;14.19;100.00;100866.53;5073413;28;20407;-75
2021/07/10 01:00:56;;;;;;;;;;;;;;;14.19;100.00;100861.06;5073774;28;19929;-74
2021/07/10 01:03:22;;;;;;;;;;;;;;;14.18;100.00;100867.53;5073421;28;19967;-74
2021/07/10 01:05:48;;;;;;;;;;;;;;;14.18;100.00;100859.34;5072252;28;19960;-73
2021/07/10 01:08:14;;;;;;;;;;;;;;;14.18;100.00;100856.59;5073175;28;20391;-74
2021/07/10 01:10:41;;;;;;;;;;;;;;;14.20;100.00;100853.72;5073528;28;20033;-74
2021/07/10 01:13:09;;;;;;;;;;;;;;;14.19;100.00;100855.59;5073257;28;20410;-73
2021/07/10 01:15:35;;;;;;;;;;;;;;;14.20;100.00;100851.88;5073181;28;19976;-74
2021/07/10 01:18:02;;;;;;;;;;;;;;;14.19;100.00;100850.16;5073074;28;19964;-73
2021/07/10 01:20:29;;;;;;;;;;;;;;;14.19;100.00;100846.53;5072825;28;20392;-74
2021/07/10 01:22:57;;;;;;;;;;;;;;;14.19;100.00;100843.81;5071795;28;19934;-73
2021/07/10 01:25:25;;;;;;;;;;;;;;;14.19;100.00;100841.06;5073174;28;20413;-74
2021/07/10 01:27:52;;;;;;;;;;;;;;;14.21;100.00;100839.94;5072762;28;19924;-74
2021/07/10 01:30:20;;;;;;;;;;;;;;;14.22;100.00;100838.06;5072929;28;19962;-74
2021/07/10 01:32:47;;;;;;;;;;;;;;;14.25;100.00;100839.66;5072667;28;20015;-74
2021/07/10 01:35:14;;;;;;;;;;;;;;;14.26;100.00;100836.78;5072621;28;19932;-74
2021/07/10 01:37:41;;;;;;;;;;;;;;;14.26;100.00;100834.03;5072458;28;20350;-74
2021/07/10 01:40:11;;;;;;;;;;;;;;;14.28;100.00;100842.09;5072591;28;20391;-74
2021/07/10 01:42:37;;;;;;;;;;;;;;;14.25;100.00;100835.03;5071451;28;19924;-73
2021/07/10 01:45:04;;;;;;;;;;;;;;;14.23;100.00;100827.00;5072401;28;20024;-75
2021/07/10 01:47:30;;;;;;;;;;;;;;;14.25;100.00;100831.47;5072261;28;19974;-72
2021/07/10 01:49:57;;;;;;;;;;;;;;;14.25;100.00;100828.72;5072609;28;20441;-73
2021/07/10 01:52:23;;;;;;;;;;;;;;;14.22;100.00;100830.72;5072238;28;19983;-74
2021/07/10 01:54:50;;;;;;;;;;;;;;;14.24;100.00;100825.13;5072344;28;19924;-74
2021/07/10 01:57:19;;;;;;;;;;;;;;;14.23;100.00;100824.28;5071946;28;19967;-74
2021/07/10 01:59:45;;;;;;;;;;;;;;;14.23;100.00;100823.44;5071343;28;19928;-74
2021/07/10 02:02:12;;;;;;;;;;;;;;;14.17;100.00;100827.56;5072124;28;19954;-72
2021/07/10 02:04:44;;;;;;;;;;;;;;;14.15;100.00;100826.88;5072251;28;19987;-73
2021/07/10 02:07:10;;;;;;;;;;;;;;;14.14;100.00;100821.56;5072142;28;20368;-73
2021/07/10 02:09:37;;;;;;;;;;;;;;;14.11;100.00;100825.44;5071023;28;19974;-72
2021/07/10 02:12:03;;;;;;;;;;;;;;;14.05;100.00;100826.03;5081369;28;20375;-72
2021/07/10 02:14:32;;;;;;;;;;;;;;;14.02;100.00;100818.97;5091046;28;20394;-72
2021/07/10 02:16:58;;;;;;;;;;;;;;;13.98;100.00;100814.81;5092348;28;19963;-72
2021/07/10 02:19:25;;;;;;;;;;;;;;;13.95;100.00;100814.25;5090730;28;19935;-72
2021/07/10 02:21:51;;;;;;;;;;;;;;;13.93;100.00;100819.84;5091595;28;19963;-72
2021/07/10 02:24:17;;;;;;;;;;;;;;;13.92;100.00;100812.66;5092211;28;19955;-74
2021/07/10 02:26:44;;;;;;;;;;;;;;;13.92;100.00;100825.44;5092061;28;20411;-74
2021/07/10 02:29:10;;;;;;;;;;;;;;;13.90;100.00;100817.41;5091717;28;19947;-72
2021/07/10 02:31:38;;;;;;;;;;;;;;;13.90;100.00;100829.19;5091683;28;20460;-73
2021/07/10 02:34:04;;;;;;;;;;;;;;;13.92;100.00;100825.44;5079068;28;19967;-73
2021/07/10 02:36:31;;;;;;;;;;;;;;;13.90;100.00;100833.78;5071958;28;19924;-73
2021/07/10 02:38:57;;;;;;;;;;;;;;;13.90;100.00;100834.63;5071628;28;19956;-73
2021/07/10 02:41:24;;;;;;;;;;;;;;;13.90;100.00;100829.19;5071669;28;20305;-74
2021/07/10 02:43:50;;;;;;;;;;;;;;;13.92;100.00;100831.75;5071800;28;20368;-74
2021/07/10 02:46:17;;;;;;;;;;;;;;;13.97;100.00;100834.06;5071327;28;19967;-73
2021/07/10 02:48:45;;;;;;;;;;;;;;;13.97;100.00;100829.47;5071605;28;19990;-74
2021/07/10 02:51:11;;;;;;;;;;;;;;;14.01;100.00;100835.50;5071486;28;20407;-73
2021/07/10 02:53:38;;;;;;;;;;;;;;;14.03;100.00;100839.81;5071695;28;19977;-73
2021/07/10 02:56:04;;;;;;;;;;;;;;;14.06;100.00;100822.28;5071510;28;19947;-74
2021/07/10 02:58:30;;;;;;;;;;;;;;;14.10;100.00;100839.25;5071045;28;20461;-74
2021/07/10 03:00:57;;;;;;;;;;;;;;;14.14;100.00;100827.88;5071603;28;20186;-73
2021/07/10 03:03:23;;;;;;;;;;;;;;;14.21;100.00;100831.72;5071611;28;19959;-73
2021/07/10 03:05:51;;;;;;;;;;;;;;;14.31;100.00;100839.94;5071278;28;19964;-74
2021/07/10 03:08:20;;;;;;;;;;;;;;;14.38;100.00;100842.94;5071085;28;20391;-74
2021/07/10 03:10:47;;;;;;;;;;;;;;;14.40;100.00;100854.56;5071751;28;19936;-74
2021/07/10 03:13:14;;;;;;;;;;;;;;;14.45;100.00;100845.94;5071201;28;19932;-72
2021/07/10 03:15:40;;;;;;;;;;;;;;;14.49;100.00;100839.19;5071545;28;19925;-73
2021/07/10 03:18:06;;;;;;;;;;;;;;;14.52;100.00;100847.94;5071557;28;19972;-72
2021/07/10 03:20:33;;;;;;;;;;;;;;;14.57;100.00;100852.94;5071423;28;19924;-73
2021/07/10 03:23:00;;;;;;;;;;;;;;;14.58;100.00;100849.22;5071188;28;19925;-74
2021/07/10 03:25:26;;;;;;;;;;;;;;;14.63;100.00;100852.41;5071410;28;20002;-73
2021/07/10 03:27:53;;;;;;;;;;;;;;;14.67;100.00;100844.75;5071243;28;19978;-73
2021/07/10 03:30:21;;;;;;;;;;;;;;;14.71;100.00;100849.78;5071126;28;19924;-73
2021/07/10 03:32:47;;;;;;;;;;;;;;;14.71;100.00;100849.78;5070969;28;19967;-73
2021/07/10 03:35:14;;;;;;;;;;;;;;;14.76;100.00;100857.53;5071178;28;19925;-73
2021/07/10 03:37:40;;;;;;;;;;;;;;;14.78;100.00;100852.78;5071834;28;19924;-73
2021/07/10 03:40:10;;;;;;;;;;;;;;;14.81;100.00;100849.75;5070977;28;19994;-73
2021/07/10 03:42:37;;;;;;;;;;;;;;;14.80;100.00;100852.63;5071048;28;19930;-73
2021/07/10 03:45:03;;;;;;;;;;;;;;;14.82;100.00;100856.94;5071282;28;19956;-72
2021/07/10 03:47:31;;;;;;;;;;;;;;;14.87;100.00;100856.47;5069748;28;19968;-73
2021/07/10 03:49:57;;;;;;;;;;;;;;;14.86;100.00;100858.34;5070120;28;19925;-72
2021/07/10 03:52:23;;;;;;;;;;;;;;;14.89;100.00;100854.47;5070887;28;19924;-72
2021/07/10 03:54:50;;;;;;;;;;;;;;;14.93;100.00;100855.03;5071132;28;19924;-74
2021/07/10 03:57:17;;;;;;;;;;;;;;;14.98;100.00;100855.41;5069539;28;20296;-73
2021/07/10 03:59:43;;;;;;;;;;;;;;;15.03;100.00;100864.03;5070918;28;19925;-73
2021/07/10 04:02:10;;;;;;;;;;;;;;;15.07;100.00;100862.72;5070759;28;19946;-73
2021/07/10 04:04:36;;;;;;;;;;;;;;;15.11;100.00;100876.97;5071095;28;19929;-73
2021/07/10 04:07:02;;;;;;;;;;;;;;;15.17;100.00;100877.22;5070716;28;19963;-73
2021/07/10 04:09:29;;;;;;;;;;;;;;;15.17;100.00;100874.47;5070560;28;19970;-73
2021/07/10 04:11:55;;;;;;;;;;;;;;;15.16;100.00;100882.84;5074407;28;19924;-73
2021/07/10 04:14:23;;;;;;;;;;;;;;;15.17;100.00;100881.84;5074233;28;19963;-73
2021/07/10 04:16:50;;;;;;;;;;;;;;;15.23;100.00;100890.28;5074144;28;19928;-73
2021/07/10 04:19:16;;;;;;;;;;;;;;;15.16;100.00;100900.09;5074366;28;19925;-72
2021/07/10 04:21:42;;;;;;;;;;;;;;;15.15;100.00;100898.38;5074429;28;19975;-73
2021/07/10 04:24:08;;;;;;;;;;;;;;;15.15;100.00;100902.97;5074098;28;19964;-73
2021/07/10 04:26:35;;;;;;;;;;;;;;;15.12;100.00;100909.59;5074159;28;19968;-73
2021/07/10 04:29:01;;;;;;;;;;;;;;;15.12;100.00;100900.56;5077853;28;20337;-74
2021/07/10 04:31:29;;;;;;;;;;;;;;;15.11;100.00;100904.28;5094075;28;19928;-72
2021/07/10 04:33:55;;;;;;;;;;;;;;;15.11;100.00;100904.28;5093928;28;20440;-73
2021/07/10 04:36:21;;;;;;;;;;;;;;;15.09;100.00;100914.53;5093553;28;19928;-73
2021/07/10 04:38:47;;;;;;;;;;;;;;;15.12;100.00;100920.53;5074266;28;20021;-73
2021/07/10 04:41:14;;;;;;;;;;;;;;;15.09;100.00;100925.47;5091409;28;19960;-74
2021/07/10 04:43:40;;;;;;;;;;;;;;;15.12;100.00;100933.38;5079474;28;19929;-74
2021/07/10 04:46:08;;;;;;;;;;;;;;;15.12;100.00;100934.22;5075737;28;19990;-73
2021/07/10 04:48:36;;;;;;;;;;;;;;;15.12;100.00;100941.56;5074306;28;19947;-73
2021/07/10 04:51:02;;;;;;;;;;;;;;;15.11;100.00;100948.03;5074603;28;19924;-73
2021/07/10 04:53:29;;;;;;;;;;;;;;;15.06;100.00;100957.53;5074697;28;19987;-74
2021/07/10 04:55:55;;;;;;;;;;;;;;;15.06;100.00;100960.28;5073716;28;19978;-74
2021/07/10 04:58:21;;;;;;;;;;;;;;;15.04;100.00;100953.25;5074539;28;20194;-74
2021/07/10 05:00:49;;;;;;;;;;;;;;;15.04;100.00;100959.56;5073373;28;19978;-73
2021/07/10 05:03:15;;;;;;;;;;;;;;;15.04;100.00;100964.16;5073549;28;19932;-74
2021/07/10 05:05:43;;;;;;;;;;;;;;;14.98;100.00;100971.09;5073412;28;19982;-73
2021/07/10 05:08:09;;;;;;;;;;;;;;;14.97;100.00;100974.00;5073121;28;19924;-73
2021/07/10 05:10:37;;;;;;;;;;;;;;;14.95;100.00;100973.25;5073352;28;19924;-74
2021/07/10 05:13:03;;;;;;;;;;;;;;;14.92;100.00;100971.69;5073539;28;19931;-73
2021/07/10 05:15:30;;;;;;;;;;;;;;;14.90;100.00;100971.81;5073163;28;19989;-73
2021/07/10 05:17:56;;;;;;;;;;;;;;;14.92;100.00;100981.75;5073113;28;19924;-73
2021/07/10 05:20:22;;;;;;;;;;;;;;;14.93;100.00;100978.03;5071522;28;19925;-72
2021/07/10 05:22:50;;;;;;;;;;;;;;;14.92;100.00;100977.16;5080783;28;19924;-73
2021/07/10 05:25:16;;;;;;;;;;;;;;;14.91;100.00;100975.41;5082359;28;19960;-73
2021/07/10 05:27:42;;;;;;;;;;;;;;;14.95;100.00;100978.72;5073947;28;19956;-73
2021/07/10 05:30:10;;;;;;;;;;;;;;;14.96;100.00;100980.44;5072980;28;20383;-73
2021/07/10 05:32:36;;;;;;;;;;;;;;;14.95;100.00;100976.00;5079881;28;19967;-72
2021/07/10 05:35:03;;;;;;;;;;;;;;;14.98;100.00;100982.03;5087766;28;20403;-73
2021/07/10 05:37:29;;;;;;;;;;;;;;;15.01;100.00;100983.63;5092587;28;19959;-73
2021/07/10 05:39:57;;;;;;;;;;;;;;;15.02;100.00;100993.53;5087125;28;20345;-73
2021/07/10 05:42:24;;;;;;;;;;;;;;;15.04;100.00;100996.97;5072419;28;20038;-72
2021/07/10 05:44:50;;;;;;;;;;;;;;;15.00;100.00;100988.19;5072503;28;20339;-73
2021/07/10 05:47:16;;;;;;;;;;;;;;;15.01;100.00;100995.41;5072029;28;19978;-73
2021/07/10 05:49:42;;;;;;;;;;;;;;;14.98;100.00;100992.97;5079155;28;19924;-73
2021/07/10 05:52:09;;;;;;;;;;;;;;;14.98;100.00;100992.97;5080140;28;19925;-73
2021/07/10 05:54:35;;;;;;;;;;;;;;;14.98;100.00;100997.56;5073596;28;19993;-74
2021/07/10 05:57:03;;;;;;;;;;;;;;;14.94;100.00;100997.00;5072266;28;19939;-73
2021/07/10 05:59:29;;;;;;;;;;;;;;;14.89;100.00;100989.22;5077281;28;19928;-73
2021/07/10 06:01:55;;;;;;;;;;;;;;;14.89;100.00;100994.69;5092536;28;20436;-74
2021/07/10 06:04:22;;;;;;;;;;;;;;;14.89;100.00;101000.16;5090737;28;19928;-73
2021/07/10 06:06:49;;;;;;;;;;;;;;;14.89;100.00;101000.16;5080794;28;19971;-74
2021/07/10 06:09:16;;;;;;;;;;;;;;;14.89;100.00;101000.16;5091484;28;19931;-74
2021/07/10 06:11:42;;;;;;;;;;;;;;;14.89;100.00;101007.50;5092249;28;19963;-74
2021/07/10 06:14:11;;;;;;;;;;;;;;;14.88;100.00;100998.47;5090842;28;19991;-74
2021/07/10 06:16:38;;;;;;;;;;;;;;;14.93;100.00;101010.81;5089467;28;20276;-74
2021/07/10 06:19:04;;;;;;;;;;;;;;;14.94;100.00;101015.25;5089263;28;19924;-74
2021/07/10 06:21:31;;;;;;;;;;;;;;;14.88;100.00;101013.97;5090736;28;20426;-73
2021/07/10 06:23:57;;;;;;;;;;;;;;;14.89;100.00;101011.09;5091085;28;19932;-74
2021/07/10 06:26:23;;;;;;;;;;;;;;;14.92;100.00;101015.41;5090694;28;19985;-74
2021/07/10 06:28:50;;;;;;;;;;;;;;;15.00;100.00;101011.94;5091789;28;19955;-74
2021/07/10 06:31:18;;;;;;;;;;;;;;;15.06;100.00;101011.38;5089870;28;19934;-74
2021/07/10 06:33:45;;;;;;;;;;;;;;;15.16;100.00;101005.88;5071318;28;19930;-74
2021/07/10 06:36:11;;;;;;;;;;;;;;;15.23;100.00;101009.72;5070698;28;19924;-74
2021/07/10 06:38:37;;;;;;;;;;;;;;;15.26;100.00;101012.19;5071519;28;19928;-74
2021/07/10 06:41:03;;;;;;;;;;;;;;;15.35;100.00;101016.75;5071775;28;19955;-73
2021/07/10 06:43:30;;;;;;;;;;;;;;;15.34;100.00;101003.22;5071902;28;19929;-74
2021/07/10 06:45:58;;;;;;;;;;;;;;;15.44;100.00;101009.53;5070523;28;19932;-74
2021/07/10 06:48:26;;;;;;;;;;;;;;;15.53;100.00;101008.63;5071544;28;20395;-74
2021/07/10 06:50:52;;;;;;;;;;;;;;;15.66;100.00;100999.19;5071819;28;20341;-74
2021/07/10 06:53:21;;;;;;;;;;;;;;;15.81;100.00;100994.13;5071596;28;19976;-73
2021/07/10 06:55:48;;;;;;;;;;;;;;;15.86;100.00;100992.66;5071521;28;19928;-74
2021/07/10 06:58:14;;;;;;;;;;;;;;;15.90;100.00;100993.22;5069877;28;20449;-73
2021/07/10 07:00:40;;;;;;;;;;;;;;;16.02;100.00;100991.09;5071674;28;19928;-73
2021/07/10 07:03:07;;;;;;;;;;;;;;;16.24;100.00;100987.06;5071427;28;20368;-73
2021/07/10 07:05:34;;;;;;;;;;;;;;;16.21;100.00;100985.50;5071879;28;19928;-73
2021/07/10 07:08:01;;;;;;;;;;;;;;;16.35;100.00;100986.84;5071441;28;20559;-73
2021/07/10 07:10:27;;;;;;;;;;;;;;;16.38;100.00;100985.66;5071580;28;20432;-73
2021/07/10 07:12:53;;;;;;;;;;;;;;;16.15;100.00;100980.63;5071449;28;19924;-73
2021/07/10 07:15:20;;;;;;;;;;;;;;;16.23;100.00;100988.09;5071087;28;19978;-73
2021/07/10 07:17:46;;;;;;;;;;;;;;;16.38;100.00;100991.13;5070987;28;19970;-73
2021/07/10 07:20:15;;;;;;;;;;;;;;;16.51;100.00;100996.25;5071525;28;20404;-73
2021/07/10 07:22:44;;;;;;;;;;;;;;;16.61;100.00;100990.66;5071465;28;19925;-73
2021/07/10 07:25:11;;;;;;;;;;;;;;;16.56;100.00;100977.44;5071206;28;19929;-72
2021/07/10 07:27:37;;;;;;;;;;;;;;;16.56;100.00;100978.31;5071080;28;19928;-73
2021/07/10 07:30:04;;;;;;;;;;;;;;;16.55;100.00;100992.16;5071444;28;20382;-73
2021/07/10 07:32:30;;;;;;;;;;;;;;;16.66;100.00;100997.41;5071268;28;20003;-73
2021/07/10 07:34:57;;;;;;;;;;;;;;;16.63;100.00;100983.16;5069807;28;19924;-72
2021/07/10 07:37:23;;;;;;;;;;;;;;;16.72;100.00;100998.66;5070887;28;19929;-73
2021/07/10 07:39:51;;;;;;;;;;;;;;;16.68;100.00;100998.09;5071613;28;19967;-73
2021/07/10 07:42:17;;;;;;;;;;;;;;;16.74;100.00;101002.09;5070936;28;19990;-73
2021/07/10 07:44:44;;;;;;;;;;;;;;;16.73;100.00;100997.66;5074005;28;19932;-73
2021/07/10 07:47:12;;;;;;;;;;;;;;;17.05;100.00;101001.69;5073626;28;19925;-73
2021/07/10 07:49:38;;;;;;;;;;;;;;;17.31;100.00;100998.94;5074864;28;19978;-73
2021/07/10 07:52:05;;;;;;;;;;;;;;;17.27;100.00;100986.56;5074748;28;19967;-73
2021/07/10 07:54:32;;;;;;;;;;;;;;;17.20;100.00;100986.34;5074206;28;20395;-73
2021/07/10 07:56:59;;;;;;;;;;;;;;;17.05;100.00;100985.25;5075165;28;19932;-73
2021/07/10 07:59:26;;;;;;;;;;;;;;;17.17;100.00;100994.03;5074847;28;19931;-74
2021/07/10 08:01:52;;;;;;;;;;;;;;;17.16;100.00;100990.44;5074504;28;20384;-73
2021/07/10 08:04:18;;;;;;;;;;;;;;;17.17;100.00;100989.44;5073469;28;20273;-72
2021/07/10 08:06:45;;;;;;;;;;;;;;;17.28;100.00;101001.16;5074340;28;19924;-72
2021/07/10 08:09:11;;;;;;;;;;;;;;;17.17;100.00;101000.41;5074554;28;19924;-73
2021/07/10 08:11:38;;;;;;;;;;;;;;;17.42;100.00;101000.53;5074112;28;20011;-72
2021/07/10 08:14:05;;;;;;;;;;;;;;;17.97;100.00;100999.28;5074343;28;19963;-73
2021/07/10 08:16:32;;;;;;;;;;;;;;;18.88;100.00;101005.78;5074474;28;19958;-73
2021/07/10 08:18:59;;;;;;;;;;;;;;;18.94;100.00;100989.63;5074048;28;19960;-73
2021/07/10 08:21:27;;;;;;;;;;;;;;;18.75;100.00;101002.66;5074274;28;20403;-73
2021/07/10 08:23:53;;;;;;;;;;;;;;;19.00;100.00;101006.31;5073855;28;20019;-73
2021/07/10 08:26:20;;;;;;;;;;;;;;;19.77;100.00;101004.88;5074131;28;19928;-73
2021/07/10 08:28:47;;;;;;;;;;;;;;;19.81;100.00;100991.66;5073961;28;19963;-74
2021/07/10 08:31:14;;;;;;;;;;;;;;;19.28;100.00;100996.78;5073873;28;20022;-72
2021/07/10 08:33:41;;;;;;;;;;;;;;;18.72;100.00;101003.88;5074265;28;20391;-73
2021/07/10 08:36:07;;;;;;;;;;;;;;;18.72;100.00;101006.63;5073896;28;19956;-72
2021/07/10 08:38:34;;;;;;;;;;;;;;;18.71;100.00;101009.53;5074067;28;19925;-72
2021/07/10 08:41:00;;;;;;;;;;;;;;;18.62;100.00;101008.66;5078034;28;20399;-72
2021/07/10 08:43:27;;;;;;;;;;;;;;;18.52;100.00;101013.47;5073970;28;20098;-73
2021/07/10 08:45:56;;;;;;;;;;;;;;;18.63;100.00;101015.88;5073767;28;20383;-73
2021/07/10 08:48:24;;;;;;;;;;;;;;;18.97;100.00;101014.03;5073193;28;20409;-73
2021/07/10 08:50:51;;;;;;;;;;;;;;;18.78;100.00;101013.31;5072846;28;19971;-72
2021/07/10 08:53:17;;;;;;;;;;;;;;;18.65;100.00;101013.84;5073631;28;19974;-72
2021/07/10 08:55:50;;;;;;;;;;;;;;;18.47;100.00;101010.38;5072742;28;19974;-73
2021/07/10 08:58:16;;;;;;;;;;;;;;;18.18;100.00;101012.53;5073469;28;20016;-72
2021/07/10 09:00:43;;;;;;;;;;;;;;;18.18;100.00;101011.69;5073411;28;19924;-71
2021/07/10 09:03:09;;;;;;;;;;;;;;;18.24;100.00;101011.03;5073049;28;19963;-73
2021/07/10 09:05:38;;;;;;;;;;;;;;;18.51;100.00;101012.59;5073312;28;19928;-72
2021/07/10 09:08:11;;;;;;;;;;;;;;;18.81;100.00;101018.47;5073373;28;19956;-73
2021/07/10 09:10:38;;;;;;;;;;;;;;;18.92;100.00;101013.69;5073363;28;19962;-73
2021/07/10 09:13:04;;;;;;;;;;;;;;;18.64;100.00;101014.88;5073240;28;19925;-72
2021/07/10 09:15:32;;;;;;;;;;;;;;;18.70;100.00;101016.06;5073255;28;19928;-72
2021/07/10 09:17:58;;;;;;;;;;;;;;;18.67;100.00;101011.75;5073333;28;20525;-73
2021/07/10 09:20:26;;;;;;;;;;;;;;;19.16;100.00;101010.94;5072966;28;19970;-73
2021/07/10 09:22:54;;;;;;;;;;;;;;;19.96;100.00;101000.88;5072446;28;19925;-72
2021/07/10 09:25:24;;;;;;;;;;;;;;;20.47;100.00;100997.66;5072969;28;19932;-72
2021/07/10 09:27:51;;;;;;;;;;;;;;;20.37;100.00;101010.81;5072739;28;19963;-72
2021/07/10 09:30:18;;;;;;;;;;;;;;;19.86;100.00;101005.75;5072992;28;19994;-72
2021/07/10 09:32:44;;;;;;;;;;;;;;;20.03;100.00;101003.75;5072972;28;20015;-72
2021/07/10 09:35:11;;;;;;;;;;;;;;;20.15;100.00;101002.34;5072624;28;20396;-72
2021/07/10 09:37:38;;;;;;;;;;;;;;;20.18;100.00;101007.47;5072979;28;20011;-72
2021/07/10 09:40:07;;;;;;;;;;;;;;;20.02;100.00;101007.56;5071569;28;19951;-71
2021/07/10 09:42:35;;;;;;;;;;;;;;;19.83;100.00;101008.84;5072535;28;19925;-72
2021/07/10 09:45:01;;;;;;;;;;;;;;;20.06;100.00;101003.41;5072577;28;19925;-72
2021/07/10 09:47:28;;;;;;;;;;;;;;;20.29;100.00;101008.09;5072278;28;19994;-71
2021/07/10 09:49:55;;;;;;;;;;;;;;;20.97;100.00;101011.91;5072784;28;19986;-72
2021/07/10 09:52:22;;;;;;;;;;;;;;;21.52;100.00;100995.16;5072154;28;20375;-72
2021/07/10 09:54:50;;;;;;;;;;;;;;;21.35;100.00;100994.47;5072597;28;20371;-72
2021/07/10 09:57:18;;;;;;;;;;;;;;;21.04;100.00;101003.75;5072716;28;19925;-72
2021/07/10 09:59:46;;;;;;;;;;;;;;;21.57;100.00;101004.59;5072407;28;20100;-72
2021/07/10 10:02:13;;;;;;;;;;;;;;;22.07;100.00;101001.19;5071034;28;19924;-72
2021/07/10 10:04:40;;;;;;;;;;;;;;;23.06;100.00;101002.44;5072124;28;20019;-72
2021/07/10 10:07:09;;;;;;;;;;;;;;;24.04;100.00;100996.06;5071982;28;19964;-73
2021/07/10 10:09:36;;;;;;;;;;;;;;;24.15;100.00;100995.44;5072181;28;20446;-73
2021/07/10 10:12:03;;;;;;;;;;;;;;;24.20;100.00;100995.69;5071919;28;19928;-72
2021/07/10 10:14:33;;;;;;;;;;;;;;;23.59;100.00;100992.81;5071945;28;19931;-72
2021/07/10 10:17:00;;;;;;;;;;;;;;;22.69;100.00;100994.25;5072093;28;19977;-72
2021/07/10 10:19:28;;;;;;;;;;;;;;;22.87;100.00;100999.28;5071773;28;19978;-73
2021/07/10 10:21:56;;;;;;;;;;;;;;;22.53;100.00;101009.22;5085018;28;19978;-72
2021/07/10 10:24:23;;;;;;;;;;;;;;;22.43;100.00;100997.59;5075005;28;19993;-71
2021/07/10 10:26:50;;;;;;;;;;;;;;;22.80;100.00;101003.09;5071818;28;19955;-71
2021/07/10 10:29:18;;;;;;;;;;;;;;;22.95;100.00;101003.00;5089489;28;19924;-71
2021/07/10 10:31:46;;;;;;;;;;;;;;;22.94;100.00;101001.28;5091915;28;19931;-71
2021/07/10 10:34:13;;;;;;;;;;;;;;;22.99;100.00;101009.84;5091619;28;19924;-71
2021/07/10 10:36:42;;;;;;;;;;;;;;;23.74;100.00;100993.53;5071131;28;22577;-71
2021/07/10 10:39:10;;;;;;;;;;;;;;;24.28;100.00;100982.69;5068344;28;19929;-71
2021/07/10 10:41:38;;;;;;;;;;;;;;;24.15;100.00;100995.44;5071189;28;20274;-72
2021/07/10 10:44:04;;;;;;;;;;;;;;;24.22;100.00;100988.00;5068638;28;20352;-71
2021/07/10 10:46:42;;;;;;;;;;;;;;;23.60;100.00;100997.28;5071307;28;19975;-71
2021/07/10 10:49:30;;;;;;;;;;;;;;;22.87;100.00;101002.06;5071612;28;19924;-71
2021/07/10 10:52:16;;;;;;;;;;;;;;;23.89;100.00;100997.06;5071644;28;19997;-71
2021/07/10 10:54:45;;;;;;;;;;;;;;;23.89;100.00;101005.38;5071696;28;19963;-72
2021/07/10 10:57:12;;;;;;;;;;;;;;;22.98;100.00;100992.38;5071039;28;20354;-71
2021/07/10 10:59:39;;;;;;;;;;;;;;;22.62;100.00;101001.66;5071622;28;19928;-70
2021/07/10 11:02:32;;;;;;;;;;;;;;;23.33;100.00;101008.19;5071417;28;19924;-71
2021/07/10 11:05:01;;;;;;;;;;;;;;;24.11;100.00;100994.16;5071717;28;19928;-71
2021/07/10 11:07:28;;;;;;;;;;;;;;;23.69;100.00;100999.72;5071180;28;19928;-70
2021/07/10 11:10:11;;;;;;;;;;;;;;;23.17;100.00;101007.47;5072269;28;19948;-70
2021/07/10 11:12:54;;;;;;;;;;;;;;;23.91;100.00;101002.41;5071581;28;19982;-70
2021/07/10 11:15:38;;;;;;;;;;;;;;;24.64;100.00;100998.16;5071171;28;20375;-70
2021/07/10 11:18:05;;;;;;;;;;;;;;;25.14;100.00;100986.63;5071446;28;19924;-71
2021/07/10 11:20:43;;;;;;;;;;;;;;;25.49;100.00;100991.94;5075190;28;19932;-71
2021/07/10 11:23:11;;;;;;;;;;;;;;;24.61;100.00;100991.06;5075386;28;19925;-71
2021/07/10 11:26:01;;;;;;;;;;;;;;;24.80;100.00;100992.19;5075143;28;20338;-71
2021/07/10 11:28:46;;;;;;;;;;;;;;;25.56;100.00;100996.41;5074557;28;19978;-71
2021/07/10 11:31:17;;;;;;;;;;;;;;;24.41;100.00;100993.81;5088463;28;19932;-71
2021/07/10 11:34:00;;;;;;;;;;;;;;;24.68;100.00;100993.88;5095521;28;20027;-71
2021/07/10 11:36:52;;;;;;;;;;;;;;;25.06;100.00;100991.31;5075695;28;19951;-70
2021/07/10 11:39:37;;;;;;;;;;;;;;;25.27;100.00;100992.19;5065395;28;19931;-71
2021/07/10 11:42:18;;;;;;;;;;;;;;;25.40;100.00;100996.88;5073885;28;19924;-70
2021/07/10 11:44:46;;;;;;;;;;;;;;;25.97;100.00;100990.72;5090852;28;20007;-70
2021/07/10 11:47:13;;;;;;;;;;;;;;;25.34;96.16;100983.88;5092934;28;19967;-70
2021/07/10 11:49:39;;;;;;;;;;;;;;;25.39;100.00;100979.34;5077969;28;19991;-71
2021/07/10 11:52:06;;;;;;;;;;;;;;;25.76;100.00;100980.75;5074719;28;20411;-70
2021/07/10 11:54:32;;;;;;;;;;;;;;;26.21;98.04;100987.19;5088549;28;19932;-71
2021/07/10 11:56:59;;;;;;;;;;;;;;;26.18;97.17;100982.09;5094914;28;19967;-70
2021/07/10 11:59:25;;;;;;;;;;;;;;;25.61;95.15;100981.84;5082818;28;19935;-70
2021/07/10 12:01:53;;;;;;;;;;;;;;;26.23;100.00;100985.06;5074554;28;19950;-71
2021/07/10 12:04:19;;;;;;;;;;;;;;;26.70;91.50;100978.34;5085268;28;19928;-71
2021/07/10 12:06:46;;;;;;;;;;;;;;;27.44;89.67;100980.50;5093296;28;20178;-70
2021/07/10 12:09:12;;;;;;;;;;;;;;;27.19;82.68;100985.00;5083264;28;20391;-71
2021/07/10 12:11:38;;;;;;;;;;;;;;;26.16;89.41;100981.47;5074739;28;19925;-71
2021/07/10 12:14:05;;;;;;;;;;;;;;;24.80;98.15;100985.78;5082171;28;19924;-71
2021/07/10 12:16:31;;;;;;;;;;;;;;;25.05;100.00;100988.75;5089258;28;20367;-71
2021/07/10 12:18:59;;;;;;;;;;;;;;;25.42;100.00;100980.84;5074068;28;19978;-71
2021/07/10 12:21:25;;;;;;;;;;;;;;;25.62;100.00;100978.00;5076231;28;20641;-71
2021/07/10 12:23:55;;;;;;;;;;;;;;;26.16;100.00;100978.69;5094380;28;20428;-71
2021/07/10 12:26:23;;;;;;;;;;;;;;;26.19;95.28;100977.34;5091886;28;20478;-71
2021/07/10 12:28:52;;;;;;;;;;;;;;;26.98;95.76;100977.03;5074252;28;19924;-71
2021/07/10 12:31:19;;;;;;;;;;;;;;;27.10;84.82;100979.94;5072171;28;19970;-71